TAE weather

Daegu Airport
Daegu, Daegu Gwang'yeogsi, South Korea

Public forecast

Using degrees Celsius for public forecast. Weather courtesy of forecast.io.

METAR (pilot weather report)

Retrieved 2019/03/26 03:00 UTC (41 minutes ago):

RKTN 260300Z 31013KT CAVOK 17/M01 Q1017 RMK SLP176

TAF (pilot weather forecast)

Forecast is more than 12 hours old.

Retrieved 2019/03/25 00:00 UTC (1 day ago):

TAF RKTN 252300Z 2600/2706 31008KT 9999 SCT040 TX19/2606Z TN06/2621Z